Latest Coastal Weather Observations for Bunbury

IDW60701

Issued at 11:02 am WST Saturday 29 August 2015 (issued every 10 minutes, with the page automatically refreshed every 10 minutes)

About coastal observations | Map of coastal stations | Coastal observations for WA | Marine services | Other Formats
Station Details ID: 009965 Name: BUNBURY Lat: -33.36 Lon: 115.64 Height: 5.2 m
Data from the previous 72 hours. | See also: Recent months at Bunbury
Date/Time
WST
Temp

°C
Wind Pressure Rain
since 9am
mm
Weather Cloud Vis
km
Sea
Height
m
Swell
Dir
 
Speed
knots
Gust
knots
hPa Trend Height
m
Period
s
Dir
29/11:00am 16.5 N 14 20 1010.6 - 0.2 - - - - - - -
29/10:30am 18.2 N 9 15 1010.6 - 0.0 - - - - - - -
29/10:00am 16.8 NNE 11 16 1010.9 - 0.0 - - - - - - -
29/09:30am 16.4 NNE 10 15 1011.5 - 0.0 - - - - - - -
29/09:00am 16.2 N 9 15 1011.8 - 0.2 - - - - - - -
29/08:30am 16.1 NNE 8 13 1011.7 - 0.2 - - - - - - -
29/08:00am 15.6 NNE 7 10 1011.8 - 0.2 - - - - - - -
29/07:30am 15.1 NNE 6 9 1011.7 - 0.2 - - - - - - -
29/07:00am 14.7 NNE 5 7 1011.6 - 0.2 - - - - - - -
29/06:30am 14.3 NE 4 7 1011.7 - 0.2 - - - - - - -
29/06:00am 13.8 NE 4 6 1011.6 - 0.2 - - - - - - -
29/05:30am 13.6 NNE 4 7 1011.7 - 0.2 - - - - - - -
29/05:00am 13.8 NE 5 7 1011.7 - 0.2 - - - - - - -
29/04:30am 13.9 NE 5 6 1011.7 - 0.2 - - - - - - -
29/04:00am 13.8 NE 4 5 1011.9 - 0.2 - - - - - - -
29/03:30am 14.9 NNE 4 7 1012.0 - 0.2 - - - - - - -
29/03:00am 15.0 NNE 4 6 1012.4 - 0.2 - - - - - - -
29/02:30am 14.7 NNE 5 8 1012.4 - 0.2 - - - - - - -
29/02:00am 12.2 NE 4 5 1012.9 - 0.2 - - - - - - -
29/01:30am 11.4 ENE 2 3 1013.3 - 0.2 - - - - - - -
29/01:00am 10.9 ENE 2 4 1013.3 - 0.2 - - - - - - -
29/12:30am 11.1 ENE 2 3 1013.7 - 0.2 - - - - - - -
29/12:00am 10.9 CALM 0 1 1013.9 - 0.2 - - - - - - -
 
Date/Time
WST
Temp

°C
Wind Pressure Rain
since 9am
mm
Weather Cloud Vis
km
Sea
Height
m
Swell
Dir
 
Speed
knots
Gust
knots
hPa Trend Height
m
Period
s
Dir
28/11:30pm 10.8 ENE 2 3 1014.2 - 0.2 - - - - - - -
28/11:00pm 11.2 E 2 3 1014.6 - 0.2 - - - - - - -
28/10:30pm 11.0 ENE 1 2 1015.0 - 0.2 - - - - - - -
28/10:00pm 10.7 ENE 1 2 1015.2 - 0.2 - - - - - - -
28/09:30pm 10.7 ENE 2 3 1015.5 - 0.2 - - - - - - -
28/09:00pm 10.9 CALM 0 0 1015.5 - 0.2 - - - - - - -
28/08:30pm 11.3 CALM 0 0 1015.3 - 0.2 - - - - - - -
28/08:00pm 11.8 CALM 0 0 1015.3 - 0.2 - - - - - - -
28/07:30pm 12.5 CALM 0 0 1015.3 - 0.2 - - - - - - -
28/07:00pm 12.9 CALM 0 1 1015.2 - 0.2 - - - - - - -
28/06:30pm 13.6 CALM 0 0 1014.8 - 0.2 - - - - - - -
28/06:00pm 15.5 CALM 0 0 1014.7 - 0.2 - - - - - - -
28/05:30pm 17.1 CALM 0 1 1014.7 - 0.2 - - - - - - -
28/05:00pm 17.4 WSW 2 4 1014.5 - 0.2 - - - - - - -
28/04:30pm 18.3 W 3 6 1014.5 - 0.2 - - - - - - -
28/04:00pm 18.7 W 4 6 1014.3 - 0.2 - - - - - - -
28/03:30pm 18.7 W 4 7 1014.5 - 0.2 - - - - - - -
28/03:00pm 18.7 W 5 8 1014.2 - 0.2 - - - - - - -
28/02:30pm 18.8 W 6 8 1014.3 - 0.2 - - - - - - -
28/02:00pm 18.6 WNW 7 10 1014.3 - 0.2 - - - - - - -
28/01:30pm 18.8 W 6 10 1014.4 - 0.2 - - - - - - -
28/01:00pm 18.6 W 7 10 1014.6 - 0.2 - - - - - - -
28/12:30pm 19.0 W 7 12 1014.8 - 0.2 - - - - - - -
28/12:00pm 19.1 W 7 11 1015.0 - 0.0 - - - - - - -
28/11:30am 18.8 W 7 11 1015.0 - 0.0 - - - - - - -
28/11:00am 18.8 WNW 6 9 1015.1 - 0.0 - - - - - - -
28/10:30am 17.9 WNW 5 7 1015.2 - 0.0 - - - - - - -
28/10:00am 17.7 NW 4 6 1015.1 - 0.0 - - - - - - -
28/09:30am 16.8 N 3 4 1015.2 - 0.0 - - - - - - -
28/09:00am 16.0 N 4 6 1015.2 - 1.4 Recent precip. - - - - - -
28/08:30am 15.4 N 5 9 1015.0 - 1.2 - - - - - - -
28/08:00am 15.4 NNE 4 6 1014.6 - 1.0 - - - - - - -
28/07:30am 14.8 ENE 2 4 1014.4 - 1.0 - - - - - - -
28/07:00am 14.4 NNE 4 5 1014.2 - 1.0 - - - - - - -
28/06:30am 14.1 NNE 4 8 1014.0 - 1.0 - - - - - - -
28/06:00am 13.6 NE 4 6 1013.4 - 0.0 - - - - - - -
28/05:30am 13.0 NE 5 7 1013.5 - 0.0 - - - - - - -
28/05:00am 12.7 NE 5 7 1013.4 - 0.0 - - - - - - -
28/04:30am 12.3 NE 4 5 1013.6 - 0.0 - - - - - - -
28/04:00am 11.8 ENE 3 5 1013.5 - 0.0 - - - - - - -
28/03:30am 11.6 NNE 1 3 1013.4 - 0.0 - - - - - - -
28/03:00am 11.8 NE 4 5 1013.4 - 0.0 - - - - - - -
28/02:30am 12.5 NNE 4 5 1013.6 - 0.0 - - - - - - -
28/02:00am 13.4 NNE 4 6 1013.4 - 0.0 - - - - - - -
28/01:30am 13.2 NE 5 6 1013.3 - 0.0 - - - - - - -
28/01:00am 14.6 NNE 4 6 1013.4 - 0.0 - - - - - - -
28/12:30am 15.1 N 5 8 1013.5 - 0.0 - - - - - - -
28/12:00am 14.3 NNE 4 5 1013.3 - 0.0 - - - - - - -
 
Date/Time
WST
Temp

°C
Wind Pressure Rain
since 9am
mm
Weather Cloud Vis
km
Sea
Height
m
Swell
Dir
 
Speed
knots
Gust
knots
hPa Trend Height
m
Period
s
Dir
27/11:30pm 14.5 NNE 4 5 1013.4 - 0.0 - - - - - - -
27/11:00pm 14.4 NNE 3 5 1013.6 - 0.0 - - - - - - -
27/10:30pm 12.4 ENE 4 7 1013.7 - 0.0 - - - - - - -
27/10:00pm 11.3 NE 2 3 1014.0 - 0.0 - - - - - - -
27/09:30pm 11.4 CALM 0 0 1014.0 - 0.0 - - - - - - -
27/09:00pm 11.2 NNE 1 2 1014.0 - 0.0 - - - - - - -
27/08:30pm 11.7 CALM 0 0 1014.0 - 0.0 - - - - - - -
27/08:00pm 12.2 CALM 0 0 1014.0 - 0.0 - - - - - - -
27/07:30pm 13.0 CALM 0 0 1014.0 - 0.0 - - - - - - -
27/07:00pm 14.2 CALM 0 0 1013.9 - 0.0 - - - - - - -
27/06:30pm 17.1 ESE 3 4 1013.7 - 0.0 - - - - - - -
27/06:00pm 18.4 SE 2 3 1013.6 - 0.0 - - - - - - -
27/05:30pm 19.7 SE 3 4 1013.5 - 0.0 - - - - - - -
27/05:00pm 20.5 SE 3 4 1013.4 - 0.0 - - - - - - -
27/04:30pm 21.5 SE 5 7 1013.7 - 0.0 - - - - - - -
27/04:00pm 21.9 ESE 5 7 1013.9 - 0.0 - - - - - - -
27/03:30pm 22.2 E 5 7 1014.3 - 0.0 - - - - - - -
27/03:00pm 22.0 ENE 4 7 1014.5 - 0.0 - - - - - - -
27/02:30pm 22.3 NNE 5 9 1014.8 - 0.0 - - - - - - -
27/02:00pm 22.2 NE 4 7 1015.1 - 0.0 - - - - - - -
27/01:30pm 22.4 NNE 3 5 1015.5 - 0.0 - - - - - - -
27/01:00pm 22.1 NNE 3 6 1015.9 - 0.0 - - - - - - -
27/12:30pm 21.5 NNE 5 8 1016.5 - 0.0 - - - - - - -
27/12:00pm 21.1 NNE 5 7 1017.0 - 0.0 - - - - - - -
27/11:30am 20.8 ENE 4 7 1017.6 - 0.0 - - - - - - -
27/11:00am 20.4 NE 4 7 1018.1 - 0.0 - - - - - - -
27/10:30am 19.4 ENE 5 8 1018.4 - 0.0 - - - - - - -
27/10:00am 18.0 E 6 8 1018.6 - 0.0 - - - - - - -
27/09:30am 17.1 E 6 9 1018.8 - 0.0 - - - - - - -
27/09:00am 15.4 E 7 10 1019.0 - 0.0 - - - - - - -
27/08:30am 13.9 ENE 5 9 1019.2 - 0.0 - - - - - - -
27/08:00am 12.2 E 4 6 1019.1 - 0.0 - - - - - - -
27/07:30am 9.8 E 4 5 1019.2 - 0.0 - - - - - - -
27/07:00am 6.8 ESE 2 3 1019.1 - 0.0 - - - - - - -
27/06:30am 8.0 CALM 0 0 1018.8 - 0.0 - - - - - - -
27/06:00am 9.2 E 2 4 1018.5 - 0.0 - - - - - - -
27/05:30am 9.4 E 3 4 1018.3 - 0.0 - - - - - - -
27/05:00am 9.5 ENE 3 5 1018.3 - 0.0 - - - - - - -
27/04:30am 9.4 E 2 4 1018.3 - 0.0 - - - - - - -
27/04:00am 9.1 E 4 5 1018.2 - 0.0 - - - - - - -
27/03:30am 9.2 E 3 4 1018.4 - 0.0 - - - - - - -
27/03:00am 9.8 ENE 2 3 1018.7 - 0.0 - - - - - - -
27/02:30am 10.0 E 4 5 1018.8 - 0.0 - - - - - - -
27/02:00am 10.0 E 3 4 1019.0 - 0.0 - - - - - - -
27/01:30am 10.5 ENE 4 6 1019.3 - 0.0 - - - - - - -
27/01:00am 9.9 E 4 5 1019.3 - 0.0 - - - - - - -
27/12:30am 9.3 ENE 3 4 1019.3 - 0.0 - - - - - - -
27/12:00am 9.5 E 3 4 1019.4 - 0.0 - - - - - - -
 
Date/Time
WST
Temp

°C
Wind Pressure Rain
since 9am
mm
Weather Cloud Vis
km
Sea
Height
m
Swell
Dir
 
Speed
knots
Gust
knots
hPa Trend Height
m
Period
s
Dir
26/11:30pm 9.3 E 4 5 1019.6 - 0.0 - - - - - - -
26/11:00pm 8.2 CALM 0 1 1019.9 - 0.0 - - - - - - -
26/10:30pm 9.5 S 1 4 1020.1 - 0.0 - - - - - - -
26/10:00pm 9.4 CALM 0 0 1020.2 - 0.0 - - - - - - -
26/09:30pm 10.2 SE 1 2 1020.3 - 0.0 - - - - - - -
26/09:00pm 10.2 ESE 2 3 1020.4 - 0.0 - - - - - - -
26/08:30pm 10.4 CALM 0 0 1020.5 - 0.0 - - - - - - -
26/08:00pm 11.8 S 1 2 1020.5 - 0.0 - - - - - - -
26/07:30pm 12.5 ESE 2 2 1020.3 - 0.0 - - - - - - -
26/07:00pm 14.0 SSE 1 3 1020.1 - 0.0 - - - - - - -
26/06:30pm 14.8 CALM 0 1 1019.9 - 0.0 - - - - - - -
26/06:00pm 15.7 N 2 3 1019.8 - 0.0 - - - - - - -
26/05:30pm 16.4 NNW 3 4 1020.0 - 0.0 - - - - - - -
26/05:00pm 16.9 WNW 2 5 1019.9 - 0.0 - - - - - - -
26/04:30pm 18.1 WNW 5 6 1019.8 - 0.0 - - - - - - -
26/04:00pm 18.5 NW 5 7 1019.7 - 0.0 - - - - - - -
26/03:30pm 18.4 NW 6 8 1019.6 - 0.0 - - - - - - -
26/03:00pm 18.6 NNW 5 9 1019.5 - 0.0 - - - - - - -
26/02:30pm 18.0 NW 6 10 1019.6 - 0.0 - - - - - - -
26/02:00pm 18.6 NW 6 10 1019.7 - 0.0 - - - - - - -
26/01:30pm 18.7 N 8 10 1019.8 - 0.0 - - - - - - -
26/01:00pm 17.7 N 7 11 1020.2 - 0.0 - - - - - - -
26/12:30pm 17.7 N 8 12 1020.8 - 0.0 - - - - - - -
26/12:00pm 17.2 N 10 14 1021.3 - 0.0 - - - - - - -
26/11:30am 16.9 NNE 7 11 1021.5 - 0.0 - - - - - - -

Other Formats:

Comma delimited format used in spreadsheet applications
http://www.bom.gov.au/fwo/IDW60701/IDW60701.94604.axf

JavaScript Object Notation format (JSON) in row-major order
http://www.bom.gov.au/fwo/IDW60701/IDW60701.94604.json